createdAt,value
2022-08-03T00:01:23.490Z,1.00
2022-08-03T00:03:51.254Z,1.13
2022-08-03T00:06:17.894Z,1.27
2022-08-03T00:08:44.364Z,0.90
2022-08-03T00:11:10.870Z,1.00
2022-08-03T00:13:37.582Z,0.93
2022-08-03T00:16:04.451Z,1.02
2022-08-03T00:18:31.048Z,0.93
2022-08-03T00:20:58.852Z,1.02
2022-08-03T00:23:25.368Z,1.13
2022-08-03T00:25:51.960Z,0.95
2022-08-03T00:28:18.488Z,1.40
2022-08-03T00:30:45.081Z,1.08
2022-08-03T00:33:11.666Z,0.90
2022-08-03T00:35:50.755Z,1.02
2022-08-03T00:38:19.756Z,1.10
2022-08-03T00:40:46.728Z,0.90
2022-08-03T00:43:13.269Z,1.10
2022-08-03T00:45:41.277Z,0.90
2022-08-03T00:48:23.301Z,1.10
2022-08-03T00:50:56.712Z,0.88
2022-08-03T00:53:25.405Z,1.08
2022-08-03T00:55:52.034Z,0.98
2022-08-03T00:58:18.547Z,1.05
2022-08-03T01:00:44.984Z,1.02
2022-08-03T01:03:11.632Z,1.20
2022-08-03T01:05:53.324Z,1.25
2022-08-03T01:08:35.301Z,0.95
2022-08-03T01:11:10.045Z,1.20
2022-08-03T01:14:04.578Z,1.10
2022-08-03T01:16:36.761Z,0.85
2022-08-03T01:19:28.296Z,0.95
2022-08-03T01:22:04.412Z,0.90
2022-08-03T01:24:42.576Z,1.00
2022-08-03T01:27:14.741Z,0.93
2022-08-03T01:29:52.445Z,1.10
2022-08-03T01:32:59.860Z,1.10
2022-08-03T01:35:12.547Z,0.95
2022-08-03T01:37:43.488Z,0.77
2022-08-03T01:40:12.619Z,1.10
2022-08-03T01:42:40.931Z,0.82
2022-08-03T01:45:10.809Z,1.10
2022-08-03T01:47:38.706Z,1.10
2022-08-03T01:50:07.554Z,1.30
2022-08-03T01:52:35.792Z,1.27
2022-08-03T01:55:03.842Z,1.00
2022-08-03T01:57:30.965Z,1.00
2022-08-03T01:59:59.850Z,0.80
2022-08-03T02:02:33.706Z,1.13
2022-08-03T02:05:01.690Z,1.02
2022-08-03T02:07:30.351Z,0.98
2022-08-03T02:09:59.167Z,0.88
2022-08-03T02:12:27.704Z,1.17
2022-08-03T02:14:56.094Z,1.10
2022-08-03T02:17:39.878Z,1.05
2022-08-03T02:20:11.804Z,1.13
2022-08-03T02:22:40.641Z,1.00
2022-08-03T02:25:08.213Z,1.10
2022-08-03T02:27:39.431Z,1.00
2022-08-03T02:30:12.113Z,1.00
2022-08-03T02:32:41.249Z,1.10
2022-08-03T02:35:14.699Z,1.00
2022-08-03T02:37:45.139Z,1.20
2022-08-03T02:40:18.933Z,1.00
2022-08-03T02:42:47.110Z,1.30
2022-08-03T02:45:16.804Z,1.02
2022-08-03T02:47:53.545Z,1.10
2022-08-03T02:50:24.906Z,0.90
2022-08-03T02:52:52.694Z,1.02
2022-08-03T02:55:21.477Z,0.95
2022-08-03T02:57:49.353Z,1.00
2022-08-03T03:00:27.105Z,0.93
2022-08-03T03:02:57.261Z,1.30
2022-08-03T03:05:56.041Z,1.27
2022-08-03T03:08:17.701Z,0.80
2022-08-03T03:13:13.977Z,1.10
2022-08-03T03:15:41.737Z,1.08
2022-08-03T03:18:09.144Z,1.08
2022-08-03T03:20:38.822Z,1.30
2022-08-03T03:23:05.940Z,1.35
2022-08-03T03:25:33.512Z,1.10
2022-08-03T03:28:01.088Z,1.15
2022-08-03T03:30:29.706Z,0.93
2022-08-03T03:32:57.307Z,1.00
2022-08-03T03:35:24.038Z,1.10
2022-08-03T03:37:52.024Z,1.10
2022-08-03T03:40:18.670Z,1.10
2022-08-03T03:42:45.342Z,1.23
2022-08-03T03:45:12.954Z,1.10
2022-08-03T03:47:39.527Z,1.30
2022-08-03T03:50:06.752Z,1.13
2022-08-03T03:52:33.946Z,1.33
2022-08-03T03:55:01.917Z,1.25
2022-08-03T03:57:28.960Z,1.20
2022-08-03T03:59:55.412Z,1.35
2022-08-03T04:02:21.913Z,0.95
2022-08-03T04:04:48.364Z,1.42
2022-08-03T04:07:14.827Z,1.70
2022-08-03T04:09:42.793Z,1.35
2022-08-03T04:12:10.695Z,1.02
2022-08-03T04:14:39.172Z,1.48
2022-08-03T04:17:09.186Z,1.30
2022-08-03T04:19:38.381Z,1.05
2022-08-03T04:22:07.160Z,1.23
2022-08-03T04:24:39.341Z,1.10
2022-08-03T04:27:09.080Z,0.90
2022-08-03T04:29:48.122Z,1.20
2022-08-03T04:32:16.848Z,1.30
2022-08-03T04:34:43.998Z,1.10
2022-08-03T04:37:12.305Z,1.20
2022-08-03T04:39:41.906Z,1.17
2022-08-03T04:42:12.575Z,1.20
2022-08-03T04:44:44.090Z,1.20
2022-08-03T04:47:10.554Z,1.50
2022-08-03T04:49:37.754Z,1.50
2022-08-03T04:52:05.226Z,1.30
2022-08-03T04:54:39.810Z,1.33
2022-08-03T04:57:06.286Z,1.00
2022-08-03T04:59:32.783Z,1.08
2022-08-03T05:02:00.541Z,1.38
2022-08-03T05:04:27.119Z,1.52
2022-08-03T05:06:55.176Z,1.00
2022-08-03T05:09:33.487Z,0.98
2022-08-03T05:12:09.196Z,1.20
2022-08-03T05:14:36.772Z,1.00
2022-08-03T05:17:04.547Z,1.35
2022-08-03T05:19:31.055Z,1.10
2022-08-03T05:21:57.705Z,1.10
2022-08-03T05:24:24.145Z,1.15
2022-08-03T05:26:50.726Z,1.13
2022-08-03T05:29:17.203Z,1.48
2022-08-03T05:31:43.726Z,1.30
2022-08-03T05:34:11.508Z,1.45
2022-08-03T05:36:37.955Z,1.17
2022-08-03T05:39:04.432Z,1.23
2022-08-03T05:41:36.797Z,1.48
2022-08-03T05:44:04.738Z,1.45
2022-08-03T05:46:31.502Z,1.20
2022-08-03T05:48:58.052Z,1.67
2022-08-03T05:51:25.830Z,1.40
2022-08-03T05:53:52.355Z,1.38
2022-08-03T05:56:22.405Z,1.40
2022-08-03T05:58:48.958Z,1.20
2022-08-03T06:01:16.117Z,1.60
2022-08-03T06:03:42.784Z,1.20
2022-08-03T06:06:09.346Z,1.30
2022-08-03T06:08:37.162Z,1.40
2022-08-03T06:11:03.613Z,1.55
2022-08-03T06:13:30.203Z,1.60
2022-08-03T06:15:56.635Z,1.60
2022-08-03T06:18:23.215Z,1.35
2022-08-03T06:20:50.352Z,1.40
2022-08-03T06:23:19.208Z,1.70
2022-08-03T06:25:47.497Z,1.88
2022-08-03T06:31:01.756Z,1.40
2022-08-03T06:34:30.968Z,1.23
2022-08-03T06:36:14.759Z,1.58
2022-08-03T06:38:41.222Z,1.40
2022-08-03T06:41:09.035Z,1.42
2022-08-03T06:43:35.869Z,1.30
2022-08-03T06:46:02.650Z,1.40
2022-08-03T06:48:29.220Z,1.80
2022-08-03T06:50:55.730Z,1.70
2022-08-03T06:53:22.478Z,1.30
2022-08-03T06:55:53.931Z,1.77
2022-08-03T06:58:22.413Z,1.88
2022-08-03T07:00:49.145Z,1.80
2022-08-03T07:03:15.783Z,1.35
2022-08-03T07:05:42.577Z,1.60
2022-08-03T07:08:09.262Z,1.50
2022-08-03T07:10:35.738Z,1.73
2022-08-03T07:13:02.233Z,1.52
2022-08-03T07:15:55.490Z,1.67
2022-08-03T07:18:16.533Z,1.55
2022-08-03T07:20:43.101Z,1.40
2022-08-03T07:23:09.744Z,1.67
2022-08-03T07:25:38.440Z,1.67
2022-08-03T07:28:04.997Z,1.65
2022-08-03T07:30:32.744Z,1.83
2022-08-03T07:32:59.219Z,1.92
2022-08-03T07:35:25.835Z,1.80
2022-08-03T07:37:54.900Z,1.50
2022-08-03T07:40:22.309Z,1.48
2022-08-03T07:42:53.221Z,1.65
2022-08-03T07:45:20.084Z,1.20
2022-08-03T07:47:53.619Z,1.75
2022-08-03T07:50:21.215Z,1.20
2022-08-03T07:52:47.909Z,1.27
2022-08-03T07:55:14.549Z,1.20
2022-08-03T07:57:40.984Z,1.17
2022-08-03T08:00:13.538Z,1.38
2022-08-03T08:02:40.016Z,1.38
2022-08-03T08:05:08.589Z,1.42
2022-08-03T08:07:35.161Z,1.20
2022-08-03T08:10:01.640Z,1.55
2022-08-03T08:12:28.320Z,1.30
2022-08-03T08:14:54.779Z,1.10
2022-08-03T08:17:21.268Z,1.10
2022-08-03T08:19:51.314Z,1.17
2022-08-03T08:22:29.718Z,1.13
2022-08-03T08:24:57.593Z,1.25
2022-08-03T08:27:24.057Z,1.10
2022-08-03T08:29:54.313Z,1.30
2022-08-03T08:32:24.080Z,1.02
2022-08-03T08:34:50.553Z,1.10
2022-08-03T08:37:16.992Z,1.30
2022-08-03T08:39:44.900Z,1.00
2022-08-03T08:42:11.498Z,1.30
2022-08-03T08:44:37.950Z,1.20
2022-08-03T08:47:04.567Z,1.13
2022-08-03T08:49:35.178Z,1.30
2022-08-03T08:52:29.553Z,1.65
2022-08-03T08:54:56.595Z,1.00
2022-08-03T08:57:42.235Z,1.15
2022-08-03T09:00:11.733Z,1.23
2022-08-03T09:02:38.174Z,1.10
2022-08-03T09:05:07.533Z,1.10
2022-08-03T09:07:34.804Z,1.10
2022-08-03T09:10:11.294Z,1.17
2022-08-03T09:12:42.925Z,1.10
2022-08-03T09:15:18.521Z,1.27
2022-08-03T09:17:50.371Z,1.20
2022-08-03T09:20:18.568Z,1.20
2022-08-03T09:22:54.561Z,1.30
2022-08-03T09:25:29.900Z,1.35
2022-08-03T09:28:05.974Z,1.85
2022-08-03T09:30:34.641Z,1.10
2022-08-03T09:33:02.749Z,1.10
2022-08-03T09:35:53.713Z,1.60
2022-08-03T09:38:18.056Z,1.10
2022-08-03T09:40:46.599Z,1.30
2022-08-03T09:43:13.651Z,1.60
2022-08-03T09:45:40.739Z,1.55
2022-08-03T09:48:21.006Z,1.33
2022-08-03T09:50:58.449Z,1.40
2022-08-03T09:53:26.478Z,1.33
2022-08-03T09:56:33.318Z,1.50
2022-08-03T09:58:46.168Z,1.50
2022-08-03T10:01:24.093Z,1.48
2022-08-03T10:04:04.463Z,1.35
2022-08-03T10:06:31.703Z,1.20
2022-08-03T10:09:07.774Z,1.35
2022-08-03T10:11:41.280Z,1.20
2022-08-03T10:14:09.887Z,1.20
2022-08-03T10:16:37.776Z,1.17
2022-08-03T10:19:05.589Z,1.50
2022-08-03T10:21:34.984Z,1.30
2022-08-03T10:24:04.441Z,1.60
2022-08-03T10:26:33.068Z,1.33
2022-08-03T10:29:04.130Z,1.08
2022-08-03T10:31:54.397Z,1.20
2022-08-03T10:34:26.376Z,1.20
2022-08-03T10:36:58.570Z,1.10
2022-08-03T10:39:29.344Z,1.25
2022-08-03T10:41:57.832Z,1.15
2022-08-03T10:44:32.414Z,1.20
2022-08-03T10:46:59.388Z,1.20
2022-08-03T10:49:33.965Z,1.27
2022-08-03T10:52:02.632Z,1.33
2022-08-03T10:54:42.600Z,1.40
2022-08-03T10:57:58.436Z,1.40
2022-08-03T11:00:27.849Z,1.20
2022-08-03T11:03:04.325Z,1.40
2022-08-03T11:05:32.836Z,1.02
2022-08-03T11:08:18.180Z,1.73
2022-08-03T11:10:44.930Z,1.13
2022-08-03T11:13:14.908Z,1.50
2022-08-03T11:15:47.052Z,1.30
2022-08-03T11:18:14.706Z,1.20
2022-08-03T11:20:47.638Z,1.20
2022-08-03T11:23:15.287Z,1.38
2022-08-03T11:26:09.999Z,1.45
2022-08-03T11:28:37.580Z,1.40
2022-08-03T11:31:49.177Z,1.45
2022-08-03T11:34:17.422Z,1.30
2022-08-03T11:37:09.994Z,0.93
2022-08-03T11:39:40.337Z,1.25
2022-08-03T11:42:36.464Z,1.30
2022-08-03T11:45:08.430Z,1.20
2022-08-03T11:47:51.008Z,1.48
2022-08-03T11:50:19.452Z,1.20
2022-08-03T11:52:45.952Z,1.42
2022-08-03T11:55:15.134Z,1.38
2022-08-03T11:59:01.901Z,1.13
2022-08-03T12:00:30.547Z,1.20
2022-08-03T12:03:00.390Z,1.13
2022-08-03T12:05:39.669Z,1.38
2022-08-03T12:08:07.672Z,1.20
2022-08-03T12:10:35.311Z,1.30
2022-08-03T12:13:03.914Z,1.33
2022-08-03T12:15:32.238Z,1.48
2022-08-03T12:17:58.770Z,1.35
2022-08-03T12:20:34.689Z,1.20
2022-08-03T12:23:04.872Z,1.33
2022-08-03T12:25:39.223Z,1.20
2022-08-03T12:28:36.278Z,1.20
2022-08-03T12:31:00.328Z,1.23
2022-08-03T12:33:27.976Z,1.10
2022-08-03T12:36:10.261Z,1.17
2022-08-03T12:38:39.710Z,1.27
2022-08-03T12:41:08.101Z,1.10
2022-08-03T12:43:37.633Z,1.25
2022-08-03T12:46:10.874Z,1.52
2022-08-03T12:48:54.318Z,1.58
2022-08-03T12:51:20.907Z,1.10
2022-08-03T12:53:53.586Z,1.10
2022-08-03T12:56:20.149Z,1.27
2022-08-03T12:58:46.891Z,1.38
2022-08-03T13:01:14.011Z,1.30
2022-08-03T13:03:43.396Z,1.55
2022-08-03T13:06:12.934Z,1.40
2022-08-03T13:08:39.795Z,1.33
2022-08-03T13:11:23.299Z,1.30
2022-08-03T13:14:09.700Z,1.27
2022-08-03T13:16:43.221Z,1.20
2022-08-03T13:19:09.945Z,1.30
2022-08-03T13:21:53.424Z,1.35
2022-08-03T13:24:29.712Z,1.38
2022-08-03T13:26:58.308Z,1.50
2022-08-03T13:29:24.764Z,1.08
2022-08-03T13:31:51.587Z,1.50
2022-08-03T13:34:22.516Z,1.40
2022-08-03T13:39:57.973Z,1.05
2022-08-03T13:42:24.281Z,1.05
2022-08-03T13:44:50.844Z,1.10
2022-08-03T13:47:17.673Z,1.30
2022-08-03T13:49:59.554Z,1.20
2022-08-03T13:52:29.288Z,1.08
2022-08-03T13:54:55.789Z,1.20
2022-08-03T13:58:03.181Z,1.30
2022-08-03T14:00:10.980Z,1.50
2022-08-03T14:02:38.437Z,1.30
2022-08-03T14:05:05.609Z,1.23
2022-08-03T14:07:32.089Z,1.20
2022-08-03T14:09:58.597Z,1.08
2022-08-03T14:12:26.377Z,1.20
2022-08-03T14:14:52.928Z,1.13
2022-08-03T14:17:20.123Z,1.08
2022-08-03T14:19:53.229Z,1.08
2022-08-03T14:22:21.258Z,1.17
2022-08-03T14:24:48.024Z,1.20
2022-08-03T14:27:15.993Z,0.95
2022-08-03T14:29:43.809Z,1.25
2022-08-03T14:32:13.226Z,1.20
2022-08-03T14:34:40.096Z,1.25
2022-08-03T14:37:06.694Z,1.00
2022-08-03T14:42:19.635Z,1.00
2022-08-03T14:44:47.486Z,1.10
2022-08-03T14:47:14.328Z,1.10
2022-08-03T14:50:37.186Z,1.10
2022-08-03T14:52:27.732Z,0.90
2022-08-03T14:54:54.191Z,0.98
2022-08-03T14:57:20.899Z,1.30
2022-08-03T14:59:55.581Z,1.10
2022-08-03T15:02:24.457Z,1.10
2022-08-03T15:04:51.153Z,0.90
2022-08-03T15:07:17.942Z,1.08
2022-08-03T15:09:44.583Z,1.00
2022-08-03T15:12:11.042Z,1.45
2022-08-03T15:14:37.882Z,1.40
2022-08-03T15:17:06.034Z,1.30
2022-08-03T15:20:01.596Z,1.25
2022-08-03T15:22:20.781Z,1.23
2022-08-03T15:24:52.299Z,1.30
2022-08-03T15:27:19.176Z,1.15
2022-08-03T15:30:07.688Z,1.20
2022-08-03T15:32:33.817Z,1.35
2022-08-03T15:35:00.455Z,1.40
2022-08-03T15:37:27.790Z,1.50
2022-08-03T15:39:59.486Z,1.10
2022-08-03T15:42:28.366Z,1.27
2022-08-03T15:44:54.897Z,1.55
2022-08-03T15:47:22.915Z,1.25
2022-08-03T15:49:50.850Z,1.50
2022-08-03T15:52:17.363Z,1.50
2022-08-03T15:54:43.926Z,1.70
2022-08-03T15:57:10.399Z,1.65
2022-08-03T15:59:36.886Z,1.67
2022-08-03T16:02:03.986Z,1.35
2022-08-03T16:04:30.606Z,1.50
2022-08-03T16:06:58.376Z,1.60
2022-08-03T16:09:42.476Z,1.77
2022-08-03T16:12:14.404Z,1.88
2022-08-03T16:14:51.762Z,1.60
2022-08-03T16:17:19.900Z,1.30
2022-08-03T16:19:46.662Z,1.48
2022-08-03T16:22:14.712Z,1.42
2022-08-03T16:24:41.203Z,1.38
2022-08-03T16:27:17.484Z,1.50
2022-08-03T16:29:54.507Z,1.30
2022-08-03T16:32:21.000Z,1.50
2022-08-03T16:34:47.476Z,1.40
2022-08-03T16:37:37.479Z,1.40
2022-08-03T16:40:01.889Z,1.23
2022-08-03T16:42:28.342Z,1.40
2022-08-03T16:44:55.056Z,1.35
2022-08-03T16:47:22.207Z,1.60
2022-08-03T16:49:54.065Z,1.10
2022-08-03T16:52:26.119Z,1.33
2022-08-03T16:54:53.911Z,1.30
2022-08-03T16:57:55.737Z,1.10
2022-08-03T17:00:09.451Z,1.75
2022-08-03T17:02:36.154Z,1.30
2022-08-03T17:05:03.183Z,1.15
2022-08-03T17:07:31.472Z,1.20
2022-08-03T17:09:58.313Z,1.02
2022-08-03T17:12:26.840Z,1.27
2022-08-03T17:14:54.146Z,1.55
2022-08-03T17:17:27.460Z,1.50
2022-08-03T17:19:56.141Z,1.30
2022-08-03T17:22:31.492Z,1.20
2022-08-03T17:25:07.424Z,1.13
2022-08-03T17:28:48.254Z,1.50
2022-08-03T17:30:22.424Z,1.23
2022-08-03T17:32:56.717Z,1.45
2022-08-03T17:35:24.777Z,1.60
2022-08-03T17:38:03.712Z,1.50
2022-08-03T17:40:32.463Z,1.45
2022-08-03T17:43:01.951Z,1.33
2022-08-03T17:45:52.807Z,1.40
2022-08-03T17:48:21.546Z,1.33
2022-08-03T17:50:55.367Z,1.52
2022-08-03T17:53:27.580Z,1.48
2022-08-03T17:56:44.595Z,1.27
2022-08-03T17:59:09.498Z,1.70
2022-08-03T18:02:00.753Z,1.30
2022-08-03T18:04:33.506Z,1.50
2022-08-03T18:07:11.131Z,1.90
2022-08-03T18:10:03.838Z,1.50
2022-08-03T18:12:29.034Z,1.63
2022-08-03T18:15:01.239Z,1.90
2022-08-03T18:17:55.552Z,2.00
2022-08-03T18:20:32.890Z,1.50
2022-08-03T18:23:08.756Z,1.80
2022-08-03T18:25:43.041Z,1.60
2022-08-03T18:28:15.515Z,1.85
2022-08-03T18:30:54.050Z,1.92
2022-08-03T18:34:18.322Z,1.88
2022-08-03T18:36:09.764Z,1.67
2022-08-03T18:38:39.167Z,1.63
2022-08-03T18:41:14.563Z,2.22
2022-08-03T18:43:47.249Z,1.60
2022-08-03T18:46:42.019Z,1.80
2022-08-03T18:49:11.792Z,1.65
2022-08-03T18:51:43.187Z,2.45
2022-08-03T18:54:46.110Z,1.90
2022-08-03T18:57:10.065Z,1.90
2022-08-03T18:59:46.293Z,2.10
2022-08-03T19:02:28.966Z,1.95
2022-08-03T19:05:03.339Z,1.98
2022-08-03T19:07:35.943Z,1.80
2022-08-03T19:10:06.058Z,1.83
2022-08-03T19:12:39.870Z,1.98
2022-08-03T19:15:10.366Z,1.90
2022-08-03T19:17:43.326Z,2.17
2022-08-03T19:20:20.172Z,1.80
2022-08-03T19:22:47.319Z,1.60
2022-08-03T19:25:13.893Z,1.90
2022-08-03T19:27:43.830Z,1.80
2022-08-03T19:30:20.105Z,1.83
2022-08-03T19:32:54.264Z,2.10
2022-08-03T19:35:51.186Z,2.00
2022-08-03T19:38:09.157Z,2.03
2022-08-03T19:40:42.004Z,1.83
2022-08-03T19:43:11.450Z,2.17
2022-08-03T19:46:06.323Z,2.00
2022-08-03T19:48:34.712Z,1.95
2022-08-03T19:51:02.963Z,1.95
2022-08-03T19:53:44.949Z,2.28
2022-08-03T19:56:12.903Z,1.98
2022-08-03T19:58:42.615Z,2.13
2022-08-03T20:01:19.489Z,1.98
2022-08-03T20:03:49.189Z,1.88
2022-08-03T20:06:16.931Z,2.10
2022-08-03T20:08:44.497Z,2.20
2022-08-03T20:11:11.114Z,2.38
2022-08-03T20:13:39.139Z,2.53
2022-08-03T20:16:06.179Z,2.05
2022-08-03T20:18:39.413Z,2.25
2022-08-03T20:21:15.350Z,2.40
2022-08-03T20:24:03.212Z,2.20
2022-08-03T20:26:30.567Z,2.20
2022-08-03T20:29:01.207Z,2.10
2022-08-03T20:31:36.368Z,2.17
2022-08-03T20:34:05.388Z,2.65
2022-08-03T20:36:31.973Z,2.60
2022-08-03T20:38:58.907Z,2.40
2022-08-03T20:41:26.250Z,2.17
2022-08-03T20:43:52.791Z,2.65
2022-08-03T20:46:33.861Z,2.47
2022-08-03T20:49:07.639Z,2.20
2022-08-03T20:54:30.533Z,1.70
2022-08-03T20:56:58.478Z,2.17
2022-08-03T20:59:25.069Z,2.63
2022-08-03T21:01:51.542Z,2.55
2022-08-03T21:04:22.492Z,2.17
2022-08-03T21:06:54.093Z,2.33
2022-08-03T21:09:39.725Z,2.55
2022-08-03T21:12:15.412Z,2.50
2022-08-03T21:13:07.586Z,2.40
2022-08-03T21:14:52.459Z,2.17
2022-08-03T21:17:38.367Z,2.30
2022-08-03T21:20:09.352Z,2.40
2022-08-03T21:22:37.755Z,2.70
2022-08-03T21:25:07.632Z,2.70
2022-08-03T21:27:34.839Z,2.33
2022-08-03T21:30:04.199Z,2.15
2022-08-03T21:32:32.615Z,2.90
2022-08-03T21:35:00.571Z,2.50
2022-08-03T21:37:28.818Z,2.40
2022-08-03T21:39:56.470Z,2.53
2022-08-03T21:42:23.287Z,2.30
2022-08-03T21:44:50.610Z,2.40
2022-08-03T21:47:18.608Z,2.47
2022-08-03T21:50:05.660Z,2.50
2022-08-03T21:52:41.837Z,2.50
2022-08-03T21:55:09.325Z,2.25
2022-08-03T21:57:51.007Z,2.72
2022-08-03T22:00:19.739Z,2.67
2022-08-03T22:02:54.448Z,2.40
2022-08-03T22:05:28.111Z,2.53
2022-08-03T22:07:57.323Z,2.40
2022-08-03T22:10:23.862Z,2.20
2022-08-03T22:12:50.335Z,2.60
2022-08-03T22:15:16.797Z,2.47
2022-08-03T22:17:54.956Z,2.70
2022-08-03T22:20:24.011Z,3.00
2022-08-03T22:22:55.797Z,2.78
2022-08-03T22:25:28.257Z,2.72
2022-08-03T22:27:54.970Z,2.25
2022-08-03T22:30:21.666Z,2.40
2022-08-03T22:32:52.602Z,2.58
2022-08-03T22:35:20.708Z,2.33
2022-08-03T22:37:49.234Z,2.55
2022-08-03T22:40:16.844Z,2.88
2022-08-03T22:42:45.940Z,2.40
2022-08-03T22:45:12.573Z,2.58
2022-08-03T22:47:59.882Z,2.47
2022-08-03T22:50:32.002Z,2.50
2022-08-03T22:55:27.303Z,2.40
2022-08-03T22:57:55.577Z,2.17
2022-08-03T23:00:24.126Z,2.20
2022-08-03T23:02:51.879Z,2.58
2022-08-03T23:06:02.319Z,2.55
2022-08-03T23:08:09.769Z,2.63
2022-08-03T23:10:38.491Z,2.30
2022-08-03T23:13:07.120Z,2.47
2022-08-03T23:15:34.191Z,2.92
2022-08-03T23:18:00.697Z,2.42
2022-08-03T23:20:28.896Z,2.45
2022-08-03T23:22:55.987Z,2.20
2022-08-03T23:25:22.981Z,2.42
2022-08-03T23:28:05.511Z,2.22
2022-08-03T23:30:36.938Z,2.30
2022-08-03T23:33:04.237Z,2.00
2022-08-03T23:36:20.133Z,2.28
2022-08-03T23:38:22.924Z,2.10
2022-08-03T23:40:51.462Z,2.10
2022-08-03T23:43:50.831Z,2.20
2022-08-03T23:46:08.795Z,2.40
2022-08-03T23:48:35.586Z,2.22
2022-08-03T23:51:09.534Z,2.17
2022-08-03T23:53:42.115Z,2.53
2022-08-03T23:56:16.897Z,2.28
2022-08-03T23:58:59.271Z,2.70
